sensor_id;sensor_type;location;lat;lon;timestamp;pressure;altitude;pressure_sealevel;temperature;humidity
72116;BME280;59991;52.140;5.428;2023-04-09T00:00:01;102675.69;;;8.75;90.02
72116;BME280;59991;52.140;5.428;2023-04-09T00:00:32;102672.16;;;8.74;90.39
72116;BME280;59991;52.140;5.428;2023-04-09T00:01:05;102679.53;;;8.74;89.92
72116;BME280;59991;52.140;5.428;2023-04-09T00:01:37;102668.66;;;8.74;90.20
72116;BME280;59991;52.140;5.428;2023-04-09T00:02:09;102673.28;;;8.73;90.52
72116;BME280;59991;52.140;5.428;2023-04-09T00:02:40;102671.38;;;8.74;90.13
72116;BME280;59991;52.140;5.428;2023-04-09T00:03:12;102672.47;;;8.73;90.36
72116;BME280;59991;52.140;5.428;2023-04-09T00:03:44;102674.41;;;8.72;90.76
72116;BME280;59991;52.140;5.428;2023-04-09T00:04:15;102679.84;;;8.72;90.33
72116;BME280;59991;52.140;5.428;2023-04-09T00:04:46;102668.47;;;8.70;90.64
72116;BME280;59991;52.140;5.428;2023-04-09T00:05:18;102672.81;;;8.71;90.80
72116;BME280;59991;52.140;5.428;2023-04-09T00:05:49;102672.00;;;8.71;90.08
72116;BME280;59991;52.140;5.428;2023-04-09T00:06:21;102675.53;;;8.71;90.39
72116;BME280;59991;52.140;5.428;2023-04-09T00:06:53;102675.84;;;8.70;89.67
72116;BME280;59991;52.140;5.428;2023-04-09T00:07:24;102681.28;;;8.70;90.58
72116;BME280;59991;52.140;5.428;2023-04-09T00:07:56;102672.31;;;8.69;90.53
72116;BME280;59991;52.140;5.428;2023-04-09T00:08:28;102671.50;;;8.69;90.41
72116;BME280;59991;52.140;5.428;2023-04-09T00:08:59;102674.56;;;8.67;90.54
72116;BME280;59991;52.140;5.428;2023-04-09T00:09:31;102682.41;;;8.69;90.62
72116;BME280;59991;52.140;5.428;2023-04-09T00:10:02;102671.19;;;8.70;90.52
72116;BME280;59991;52.140;5.428;2023-04-09T00:10:34;102671.19;;;8.70;90.45
72116;BME280;59991;52.140;5.428;2023-04-09T00:11:05;102671.19;;;8.70;90.49
72116;BME280;59991;52.140;5.428;2023-04-09T00:11:37;102668.47;;;8.70;90.26
72116;BME280;59991;52.140;5.428;2023-04-09T00:12:08;102672.81;;;8.71;90.71
72116;BME280;59991;52.140;5.428;2023-04-09T00:12:40;102674.41;;;8.72;90.34
72116;BME280;59991;52.140;5.428;2023-04-09T00:13:11;102674.41;;;8.72;90.21
72116;BME280;59991;52.140;5.428;2023-04-09T00:13:42;102672.81;;;8.71;89.96
72116;BME280;59991;52.140;5.428;2023-04-09T00:14:14;102678.25;;;8.71;90.74
72116;BME280;59991;52.140;5.428;2023-04-09T00:14:45;102676.63;;;8.70;90.63
72116;BME280;59991;52.140;5.428;2023-04-09T00:15:16;102678.56;;;8.70;90.12
72116;BME280;59991;52.140;5.428;2023-04-09T00:16:00;102679.34;;;8.70;90.07
72116;BME280;59991;52.140;5.428;2023-04-09T00:16:32;102678.25;;;8.71;90.27
72116;BME280;59991;52.140;5.428;2023-04-09T00:17:03;102671.19;;;8.70;89.78
72116;BME280;59991;52.140;5.428;2023-04-09T00:17:35;102679.84;;;8.72;90.11
72116;BME280;59991;52.140;5.428;2023-04-09T00:18:06;102671.69;;;8.72;90.26
72116;BME280;59991;52.140;5.428;2023-04-09T00:18:38;102674.41;;;8.72;90.45
72116;BME280;59991;52.140;5.428;2023-04-09T00:19:09;102677.91;;;8.73;89.89
72116;BME280;59991;52.140;5.428;2023-04-09T00:19:41;102670.88;;;8.72;90.28
72116;BME280;59991;52.140;5.428;2023-04-09T00:20:13;102683.69;;;8.71;90.27
72116;BME280;59991;52.140;5.428;2023-04-09T00:20:44;102679.69;;;8.69;90.02
72116;BME280;59991;52.140;5.428;2023-04-09T00:21:15;102672.31;;;8.69;90.45
72116;BME280;59991;52.140;5.428;2023-04-09T00:21:47;102677.28;;;8.67;90.19
72116;BME280;59991;52.140;5.428;2023-04-09T00:22:18;102675.66;;;8.66;90.37
72116;BME280;59991;52.140;5.428;2023-04-09T00:22:50;102680.34;;;8.65;90.77
72116;BME280;59991;52.140;5.428;2023-04-09T00:23:22;102676.81;;;8.65;90.40
72116;BME280;59991;52.140;5.428;2023-04-09T00:23:53;102676.81;;;8.65;90.70
72116;BME280;59991;52.140;5.428;2023-04-09T00:24:25;102672.50;;;8.64;90.61
72116;BME280;59991;52.140;5.428;2023-04-09T00:24:56;102677.13;;;8.63;90.49
72116;BME280;59991;52.140;5.428;2023-04-09T00:25:27;102672.50;;;8.64;90.50
72116;BME280;59991;52.140;5.428;2023-04-09T00:25:59;102671.38;;;8.65;90.11
72116;BME280;59991;52.140;5.428;2023-04-09T00:26:31;102671.03;;;8.66;90.48
72116;BME280;59991;52.140;5.428;2023-04-09T00:27:02;102670.22;;;8.66;90.31
72116;BME280;59991;52.140;5.428;2023-04-09T00:27:34;102671.03;;;8.66;89.81
72116;BME280;59991;52.140;5.428;2023-04-09T00:28:05;102673.44;;;8.68;90.36
72116;BME280;59991;52.140;5.428;2023-04-09T00:28:37;102671.84;;;8.67;90.62
72116;BME280;59991;52.140;5.428;2023-04-09T00:29:08;102665.28;;;8.68;90.13
72116;BME280;59991;52.140;5.428;2023-04-09T00:29:40;102675.53;;;8.71;90.25
72116;BME280;59991;52.140;5.428;2023-04-09T00:30:11;102675.53;;;8.71;89.93
72116;BME280;59991;52.140;5.428;2023-04-09T00:30:43;102670.41;;;8.70;90.57
72116;BME280;59991;52.140;5.428;2023-04-09T00:31:14;102668.78;;;8.69;90.31
72116;BME280;59991;52.140;5.428;2023-04-09T00:31:46;102668.47;;;8.70;90.46
72116;BME280;59991;52.140;5.428;2023-04-09T00:32:17;102666.06;;;8.69;90.65
72116;BME280;59991;52.140;5.428;2023-04-09T00:32:49;102665.28;;;8.68;90.74
72116;BME280;59991;52.140;5.428;2023-04-09T00:33:21;102666.06;;;8.69;90.53
72116;BME280;59991;52.140;5.428;2023-04-09T00:33:52;102664.78;;;8.66;90.57
72116;BME280;59991;52.140;5.428;2023-04-09T00:34:24;102662.56;;;8.68;90.65
72116;BME280;59991;52.140;5.428;2023-04-09T00:34:55;102662.56;;;8.68;90.21
72116;BME280;59991;52.140;5.428;2023-04-09T00:35:27;102668.78;;;8.69;90.91
72116;BME280;59991;52.140;5.428;2023-04-09T00:35:58;102665.28;;;8.68;90.53
72116;BME280;59991;52.140;5.428;2023-04-09T00:36:29;102665.28;;;8.68;90.55
72116;BME280;59991;52.140;5.428;2023-04-09T00:37:02;102663.69;;;8.67;90.40
72116;BME280;59991;52.140;5.428;2023-04-09T00:37:33;102668.00;;;8.68;90.70
72116;BME280;59991;52.140;5.428;2023-04-09T00:38:05;102663.34;;;8.69;90.62
72116;BME280;59991;52.140;5.428;2023-04-09T00:38:36;102659.03;;;8.68;90.56
72116;BME280;59991;52.140;5.428;2023-04-09T00:39:07;102661.75;;;8.68;90.90
72116;BME280;59991;52.140;5.428;2023-04-09T00:39:39;102661.75;;;8.68;90.74
72116;BME280;59991;52.140;5.428;2023-04-09T00:40:10;102659.03;;;8.68;90.78
72116;BME280;59991;52.140;5.428;2023-04-09T00:40:42;102663.34;;;8.69;90.80
72116;BME280;59991;52.140;5.428;2023-04-09T00:41:13;102661.44;;;8.69;90.73
72116;BME280;59991;52.140;5.428;2023-04-09T00:41:45;102663.03;;;8.70;90.99
72116;BME280;59991;52.140;5.428;2023-04-09T00:42:16;102666.56;;;8.71;90.37
72116;BME280;59991;52.140;5.428;2023-04-09T00:42:48;102661.91;;;8.71;90.44
72116;BME280;59991;52.140;5.428;2023-04-09T00:43:19;102657.28;;;8.72;89.98
72116;BME280;59991;52.140;5.428;2023-04-09T00:43:51;102652.66;;;8.72;90.76
72116;BME280;59991;52.140;5.428;2023-04-09T00:44:23;102660.31;;;8.70;90.27
72116;BME280;59991;52.140;5.428;2023-04-09T00:44:54;102666.25;;;8.72;90.16
72116;BME280;59991;52.140;5.428;2023-04-09T00:45:26;102655.38;;;8.72;90.20
72116;BME280;59991;52.140;5.428;2023-04-09T00:45:58;102655.38;;;8.72;90.65
72116;BME280;59991;52.140;5.428;2023-04-09T00:46:30;102663.22;;;8.74;90.34
72116;BME280;59991;52.140;5.428;2023-04-09T00:47:02;102658.88;;;8.73;90.87
72116;BME280;59991;52.140;5.428;2023-04-09T00:47:34;102661.13;;;8.71;90.14
72116;BME280;59991;52.140;5.428;2023-04-09T00:48:06;102660.81;;;8.72;89.94
72116;BME280;59991;52.140;5.428;2023-04-09T00:48:38;102656.97;;;8.73;90.25
72116;BME280;59991;52.140;5.428;2023-04-09T00:49:09;102656.16;;;8.73;91.12
72116;BME280;59991;52.140;5.428;2023-04-09T00:49:41;102662.72;;;8.72;90.38
72116;BME280;59991;52.140;5.428;2023-04-09T00:50:12;102653.28;;;8.69;90.92
72116;BME280;59991;52.140;5.428;2023-04-09T00:50:43;102659.84;;;8.68;91.23
72116;BME280;59991;52.140;5.428;2023-04-09T00:51:15;102646.91;;;8.65;90.72
72116;BME280;59991;52.140;5.428;2023-04-09T00:51:47;102657.44;;;8.66;90.80
72116;BME280;59991;52.140;5.428;2023-04-09T00:52:18;102648.47;;;8.66;90.39
72116;BME280;59991;52.140;5.428;2023-04-09T00:52:50;102648.47;;;8.66;90.61
72116;BME280;59991;52.140;5.428;2023-04-09T00:53:22;102653.16;;;8.65;90.81
72116;BME280;59991;52.140;5.428;2023-04-09T00:53:54;102657.78;;;8.65;91.00
72116;BME280;59991;52.140;5.428;2023-04-09T00:54:26;102656.97;;;8.64;90.70
72116;BME280;59991;52.140;5.428;2023-04-09T00:54:59;102651.84;;;8.63;91.08
72116;BME280;59991;52.140;5.428;2023-04-09T00:55:31;102648.03;;;8.64;91.03
72116;BME280;59991;52.140;5.428;2023-04-09T00:56:03;102646.91;;;8.65;90.82
72116;BME280;59991;52.140;5.428;2023-04-09T00:56:37;102653.91;;;8.66;90.87
72116;BME280;59991;52.140;5.428;2023-04-09T00:57:08;102653.16;;;8.65;90.79
72116;BME280;59991;52.140;5.428;2023-04-09T00:57:41;102648.81;;;8.64;90.90
72116;BME280;59991;52.140;5.428;2023-04-09T00:58:12;102656.19;;;8.64;90.91
72116;BME280;59991;52.140;5.428;2023-04-09T00:58:44;102652.34;;;8.65;91.04
72116;BME280;59991;52.140;5.428;2023-04-09T00:59:15;102655.06;;;8.65;90.53
72116;BME280;59991;52.140;5.428;2023-04-09T00:59:47;102652.78;;;8.67;90.73
72116;BME280;59991;52.140;5.428;2023-04-09T01:00:18;102653.91;;;8.66;90.66
72116;BME280;59991;52.140;5.428;2023-04-09T01:00:49;102645.44;;;8.68;90.54
72116;BME280;59991;52.140;5.428;2023-04-09T01:01:21;102644.63;;;8.67;90.65
72116;BME280;59991;52.140;5.428;2023-04-09T01:01:52;102651.19;;;8.66;90.48
72116;BME280;59991;52.140;5.428;2023-04-09T01:02:25;102647.22;;;8.63;90.95
72116;BME280;59991;52.140;5.428;2023-04-09T01:02:57;102650.25;;;8.62;90.61
72116;BME280;59991;52.140;5.428;2023-04-09T01:03:29;102643.69;;;8.63;90.80
72116;BME280;59991;52.140;5.428;2023-04-09T01:04:01;102645.31;;;8.64;90.68
72116;BME280;59991;52.140;5.428;2023-04-09T01:04:33;102637.16;;;8.64;90.57
72116;BME280;59991;52.140;5.428;2023-04-09T01:05:05;102643.03;;;8.66;90.45
72116;BME280;59991;52.140;5.428;2023-04-09T01:06:45;102651.84;;;8.72;90.27
72116;BME280;59991;52.140;5.428;2023-04-09T01:09:58;102641.75;;;8.72;90.63
72116;BME280;59991;52.140;5.428;2023-04-09T01:10:41;102647.84;;;8.69;90.84
72116;BME280;59991;52.140;5.428;2023-04-09T01:11:36;102647.03;;;8.69;90.66
72116;BME280;59991;52.140;5.428;2023-04-09T01:12:15;102650.88;;;8.68;90.55
72116;BME280;59991;52.140;5.428;2023-04-09T01:13:03;102647.34;;;8.67;90.45
72116;BME280;59991;52.140;5.428;2023-04-09T01:14:04;102646.91;;;8.65;91.15
72116;BME280;59991;52.140;5.428;2023-04-09T01:14:48;102649.13;;;8.63;90.68
72116;BME280;59991;52.140;5.428;2023-04-09T01:15:27;102646.75;;;8.61;90.78
72116;BME280;59991;52.140;5.428;2023-04-09T01:16:02;102641.13;;;8.58;90.73
72116;BME280;59991;52.140;5.428;2023-04-09T01:16:35;102644.66;;;8.58;91.38
72116;BME280;59991;52.140;5.428;2023-04-09T01:17:41;102635.69;;;8.58;91.55
72116;BME280;59991;52.140;5.428;2023-04-09T01:18:21;102639.22;;;8.58;91.16
72116;BME280;59991;52.140;5.428;2023-04-09T01:18:58;102634.25;;;8.52;91.46
72116;BME280;59991;52.140;5.428;2023-04-09T01:19:40;102636.81;;;8.57;90.91
72116;BME280;59991;52.140;5.428;2023-04-09T01:21:08;102641.44;;;8.56;91.15
72116;BME280;59991;52.140;5.428;2023-04-09T01:21:40;102643.06;;;8.57;91.67
72116;BME280;59991;52.140;5.428;2023-04-09T01:24:09;102641.31;;;8.61;91.55
72116;BME280;59991;52.140;5.428;2023-04-09T01:24:43;102636.34;;;8.63;90.68
72116;BME280;59991;52.140;5.428;2023-04-09T01:27:08;102640.00;;;8.68;90.59
72116;BME280;59991;52.140;5.428;2023-04-09T01:28:16;102645.44;;;8.68;91.18
72116;BME280;59991;52.140;5.428;2023-04-09T01:28:52;102638.75;;;8.65;91.07
72116;BME280;59991;52.140;5.428;2023-04-09T01:29:25;102636.03;;;8.65;91.08
72116;BME280;59991;52.140;5.428;2023-04-09T01:30:03;102641.47;;;8.65;90.98
72116;BME280;59991;52.140;5.428;2023-04-09T01:30:34;102638.75;;;8.65;91.63
72116;BME280;59991;52.140;5.428;2023-04-09T01:31:10;102638.75;;;8.65;91.57
72116;BME280;59991;52.140;5.428;2023-04-09T01:31:44;102644.97;;;8.65;90.93
72116;BME280;59991;52.140;5.428;2023-04-09T01:32:17;102640.31;;;8.66;91.49
72116;BME280;59991;52.140;5.428;2023-04-09T01:32:51;102638.75;;;8.65;91.34
72116;BME280;59991;52.140;5.428;2023-04-09T01:33:24;102638.41;;;8.66;91.08
72116;BME280;59991;52.140;5.428;2023-04-09T01:33:56;102639.53;;;8.65;91.27
72116;BME280;59991;52.140;5.428;2023-04-09T01:34:29;102638.75;;;8.65;91.28
72116;BME280;59991;52.140;5.428;2023-04-09T01:35:01;102634.88;;;8.66;91.02
72116;BME280;59991;52.140;5.428;2023-04-09T01:35:34;102636.81;;;8.65;90.97
72116;BME280;59991;52.140;5.428;2023-04-09T01:36:06;102638.75;;;8.65;91.17
72116;BME280;59991;52.140;5.428;2023-04-09T01:36:39;102637.28;;;8.68;90.78
72116;BME280;59991;52.140;5.428;2023-04-09T01:37:13;102633.63;;;8.63;91.52
72116;BME280;59991;52.140;5.428;2023-04-09T01:37:46;102634.88;;;8.66;91.24
72116;BME280;59991;52.140;5.428;2023-04-09T01:38:19;102632.97;;;8.66;90.85
72116;BME280;59991;52.140;5.428;2023-04-09T01:38:52;102632.16;;;8.66;91.38
72116;BME280;59991;52.140;5.428;2023-04-09T01:39:25;102633.75;;;8.67;91.09
72116;BME280;59991;52.140;5.428;2023-04-09T01:39:58;102638.75;;;8.65;91.41
72116;BME280;59991;52.140;5.428;2023-04-09T01:40:29;102636.03;;;8.65;91.64
72116;BME280;59991;52.140;5.428;2023-04-09T01:41:02;102636.03;;;8.65;91.20
72116;BME280;59991;52.140;5.428;2023-04-09T01:41:34;102634.44;;;8.64;91.11
72116;BME280;59991;52.140;5.428;2023-04-09T01:42:09;102625.16;;;8.65;91.22
72116;BME280;59991;52.140;5.428;2023-04-09T01:42:42;102629.44;;;8.66;90.91
72116;BME280;59991;52.140;5.428;2023-04-09T01:43:14;102629.13;;;8.68;91.14
72116;BME280;59991;52.140;5.428;2023-04-09T01:43:48;102628.31;;;8.67;91.31
72116;BME280;59991;52.140;5.428;2023-04-09T01:44:20;102627.53;;;8.66;90.59
72116;BME280;59991;52.140;5.428;2023-04-09T01:44:53;102619.84;;;8.69;90.41
72116;BME280;59991;52.140;5.428;2023-04-09T01:45:25;102630.41;;;8.70;90.98
72116;BME280;59991;52.140;5.428;2023-04-09T01:45:58;102623.69;;;8.68;91.17
72116;BME280;59991;52.140;5.428;2023-04-09T01:46:31;102624.97;;;8.70;91.33
72116;BME280;59991;52.140;5.428;2023-04-09T01:47:04;102626.88;;;8.70;91.18
72116;BME280;59991;52.140;5.428;2023-04-09T01:47:36;102630.72;;;8.69;91.09
72116;BME280;59991;52.140;5.428;2023-04-09T01:48:08;102617.94;;;8.69;91.15
72116;BME280;59991;52.140;5.428;2023-04-09T01:48:41;102620.66;;;8.69;91.11
72116;BME280;59991;52.140;5.428;2023-04-09T01:49:13;102624.97;;;8.70;90.69
72116;BME280;59991;52.140;5.428;2023-04-09T01:49:45;102628.81;;;8.69;90.75
72116;BME280;59991;52.140;5.428;2023-04-09T01:50:17;102626.88;;;8.70;90.82
72116;BME280;59991;52.140;5.428;2023-04-09T01:50:50;102624.97;;;8.70;91.28
72116;BME280;59991;52.140;5.428;2023-04-09T01:51:21;102624.16;;;8.70;91.00
72116;BME280;59991;52.140;5.428;2023-04-09T01:51:53;102633.91;;;8.71;90.89
72116;BME280;59991;52.140;5.428;2023-04-09T01:52:25;102623.84;;;8.71;90.96
72116;BME280;59991;52.140;5.428;2023-04-09T01:52:58;102627.38;;;8.72;90.55
72116;BME280;59991;52.140;5.428;2023-04-09T01:53:30;102625.44;;;8.72;90.48
72116;BME280;59991;52.140;5.428;2023-04-09T01:54:01;102626.25;;;8.73;90.63
72116;BME280;59991;52.140;5.428;2023-04-09T01:54:33;102632.50;;;8.73;91.37
72116;BME280;59991;52.140;5.428;2023-04-09T01:55:05;102625.13;;;8.74;91.34
72116;BME280;59991;52.140;5.428;2023-04-09T01:55:37;102624.31;;;8.73;91.42
72116;BME280;59991;52.140;5.428;2023-04-09T01:56:08;102623.53;;;8.73;91.21
72116;BME280;59991;52.140;5.428;2023-04-09T01:56:44;102621.59;;;8.73;90.72
72116;BME280;59991;52.140;5.428;2023-04-09T01:57:16;102625.59;;;8.76;91.13
72116;BME280;59991;52.140;5.428;2023-04-09T01:57:47;102624.00;;;8.75;91.21
72116;BME280;59991;52.140;5.428;2023-04-09T01:58:19;102617.44;;;8.76;90.37
72116;BME280;59991;52.140;5.428;2023-04-09T01:58:50;102620.97;;;8.76;90.33
72116;BME280;59991;52.140;5.428;2023-04-09T01:59:23;102622.09;;;8.75;90.74
72116;BME280;59991;52.140;5.428;2023-04-09T02:00:12;102619.06;;;8.77;90.64
72116;BME280;59991;52.140;5.428;2023-04-09T02:00:47;102619.06;;;8.77;90.87
72116;BME280;59991;52.140;5.428;2023-04-09T02:01:22;102621.78;;;8.77;90.41
72116;BME280;59991;52.140;5.428;2023-04-09T02:02:06;102620.16;;;8.76;90.47
72116;BME280;59991;52.140;5.428;2023-04-09T02:02:45;102622.09;;;8.75;90.59
72116;BME280;59991;52.140;5.428;2023-04-09T02:03:22;102628.34;;;8.76;90.47
72116;BME280;59991;52.140;5.428;2023-04-09T02:03:57;102615.06;;;8.74;91.09
72116;BME280;59991;52.140;5.428;2023-04-09T02:04:42;102624.81;;;8.75;91.40
72116;BME280;59991;52.140;5.428;2023-04-09T02:05:18;102627.53;;;8.75;91.22
72116;BME280;59991;52.140;5.428;2023-04-09T02:07:44;102619.22;;;8.72;90.99
72116;BME280;59991;52.140;5.428;2023-04-09T02:08:20;102621.13;;;8.71;91.02
72116;BME280;59991;52.140;5.428;2023-04-09T02:08:52;102623.84;;;8.71;91.03
72116;BME280;59991;52.140;5.428;2023-04-09T02:09:27;102624.66;;;8.72;90.89
72116;BME280;59991;52.140;5.428;2023-04-09T02:10:00;102623.84;;;8.71;90.66
72116;BME280;59991;52.140;5.428;2023-04-09T02:10:34;102618.41;;;8.71;90.45
72116;BME280;59991;52.140;5.428;2023-04-09T02:11:08;102617.28;;;8.72;90.94
72116;BME280;59991;52.140;5.428;2023-04-09T02:11:41;102623.22;;;8.74;90.79
72116;BME280;59991;52.140;5.428;2023-04-09T02:12:16;102617.78;;;8.74;90.76
72116;BME280;59991;52.140;5.428;2023-04-09T02:12:51;102624.00;;;8.75;90.68
72116;BME280;59991;52.140;5.428;2023-04-09T02:13:23;102613.94;;;8.75;91.09
72116;BME280;59991;52.140;5.428;2023-04-09T02:13:57;102619.06;;;8.77;91.55
72116;BME280;59991;52.140;5.428;2023-04-09T02:14:30;102620.16;;;8.76;91.44
72116;BME280;59991;52.140;5.428;2023-04-09T02:15:03;102617.78;;;8.74;91.25
72116;BME280;59991;52.140;5.428;2023-04-09T02:15:37;102619.38;;;8.75;91.25
72116;BME280;59991;52.140;5.428;2023-04-09T02:16:10;102618.56;;;8.75;91.25
72116;BME280;59991;52.140;5.428;2023-04-09T02:16:44;102617.78;;;8.74;91.04
72116;BME280;59991;52.140;5.428;2023-04-09T02:17:16;102621.59;;;8.73;91.14
72116;BME280;59991;52.140;5.428;2023-04-09T02:17:47;102619.69;;;8.74;91.19
72116;BME280;59991;52.140;5.428;2023-04-09T02:18:21;102616.97;;;8.74;91.26
72116;BME280;59991;52.140;5.428;2023-04-09T02:18:53;102619.38;;;8.75;90.74
72116;BME280;59991;52.140;5.428;2023-04-09T02:19:42;102618.56;;;8.75;91.33
72116;BME280;59991;52.140;5.428;2023-04-09T02:20:17;102609.13;;;8.72;91.16
72116;BME280;59991;52.140;5.428;2023-04-09T02:20:49;102609.75;;;8.69;91.09
72116;BME280;59991;52.140;5.428;2023-04-09T02:21:21;102619.53;;;8.70;91.30
72116;BME280;59991;52.140;5.428;2023-04-09T02:21:53;102606.25;;;8.69;91.48
72116;BME280;59991;52.140;5.428;2023-04-09T02:22:24;102612.47;;;8.69;92.09
72116;BME280;59991;52.140;5.428;2023-04-09T02:22:56;102609.28;;;8.67;91.50
72116;BME280;59991;52.140;5.428;2023-04-09T02:23:27;102617.94;;;8.69;91.05
72116;BME280;59991;52.140;5.428;2023-04-09T02:23:59;102605.94;;;8.70;91.23
72116;BME280;59991;52.140;5.428;2023-04-09T02:24:30;102611.84;;;8.72;91.09
72116;BME280;59991;52.140;5.428;2023-04-09T02:25:02;102601.78;;;8.73;90.77
72116;BME280;59991;52.140;5.428;2023-04-09T02:25:33;102602.56;;;8.73;90.86
72116;BME280;59991;52.140;5.428;2023-04-09T02:26:05;102607.69;;;8.75;91.06
72116;BME280;59991;52.140;5.428;2023-04-09T02:26:36;102607.69;;;8.75;90.78
72116;BME280;59991;52.140;5.428;2023-04-09T02:27:08;102608.50;;;8.75;91.23
72116;BME280;59991;52.140;5.428;2023-04-09T02:27:39;102608.50;;;8.75;91.69
72116;BME280;59991;52.140;5.428;2023-04-09T02:28:11;102600.66;;;8.74;91.13
72116;BME280;59991;52.140;5.428;2023-04-09T02:28:42;102610.72;;;8.73;91.17
72116;BME280;59991;52.140;5.428;2023-04-09T02:29:13;102602.56;;;8.73;91.39
72116;BME280;59991;52.140;5.428;2023-04-09T02:29:45;102602.56;;;8.73;91.38
72116;BME280;59991;52.140;5.428;2023-04-09T02:30:16;102600.97;;;8.72;91.59
72116;BME280;59991;52.140;5.428;2023-04-09T02:30:48;102600.16;;;8.72;91.46
72116;BME280;59991;52.140;5.428;2023-04-09T02:31:19;102603.69;;;8.72;91.49
72116;BME280;59991;52.140;5.428;2023-04-09T02:31:51;102602.09;;;8.71;91.00
72116;BME280;59991;52.140;5.428;2023-04-09T02:32:23;102600.97;;;8.72;91.55
72116;BME280;59991;52.140;5.428;2023-04-09T02:32:54;102600.97;;;8.72;91.30
72116;BME280;59991;52.140;5.428;2023-04-09T02:33:26;102602.56;;;8.73;90.68
72116;BME280;59991;52.140;5.428;2023-04-09T02:33:58;102605.78;;;8.75;90.63
72116;BME280;59991;52.140;5.428;2023-04-09T02:34:29;102607.69;;;8.75;90.98
72116;BME280;59991;52.140;5.428;2023-04-09T02:35:01;102603.38;;;8.74;91.48
72116;BME280;59991;52.140;5.428;2023-04-09T02:35:32;102599.06;;;8.73;91.80
72116;BME280;59991;52.140;5.428;2023-04-09T02:36:05;102597.44;;;8.72;91.32
72116;BME280;59991;52.140;5.428;2023-04-09T02:36:36;102603.22;;;8.70;91.44
72116;BME280;59991;52.140;5.428;2023-04-09T02:37:07;102602.72;;;8.68;91.56
72116;BME280;59991;52.140;5.428;2023-04-09T02:37:39;102597.28;;;8.68;91.54
72116;BME280;59991;52.140;5.428;2023-04-09T02:38:10;102598.41;;;8.67;91.77
72116;BME280;59991;52.140;5.428;2023-04-09T02:38:43;102603.03;;;8.66;91.47
72116;BME280;59991;52.140;5.428;2023-04-09T02:39:16;102603.38;;;8.65;92.00
72116;BME280;59991;52.140;5.428;2023-04-09T02:39:48;102599.53;;;8.66;92.01
72116;BME280;59991;52.140;5.428;2023-04-09T02:40:19;102600.31;;;8.66;91.67
72116;BME280;59991;52.140;5.428;2023-04-09T02:40:50;102598.75;;;8.65;91.51
72116;BME280;59991;52.140;5.428;2023-04-09T02:41:22;102597.59;;;8.66;91.27
72116;BME280;59991;52.140;5.428;2023-04-09T02:41:54;102604.31;;;8.69;91.26
72116;BME280;59991;52.140;5.428;2023-04-09T02:42:26;102603.22;;;8.70;90.77
72116;BME280;59991;52.140;5.428;2023-04-09T02:42:57;102598.56;;;8.71;91.11
72116;BME280;59991;52.140;5.428;2023-04-09T02:43:29;102598.25;;;8.72;90.76
72116;BME280;59991;52.140;5.428;2023-04-09T02:44:01;102600.66;;;8.74;90.45
72116;BME280;59991;52.140;5.428;2023-04-09T02:44:32;102598.72;;;8.74;90.71
72116;BME280;59991;52.140;5.428;2023-04-09T02:45:05;102603.06;;;8.75;90.70
72116;BME280;59991;52.140;5.428;2023-04-09T02:45:36;102603.84;;;8.76;91.22
72116;BME280;59991;52.140;5.428;2023-04-09T02:46:08;102601.94;;;8.76;90.39
72116;BME280;59991;52.140;5.428;2023-04-09T02:46:40;102604.66;;;8.76;90.77
72116;BME280;59991;52.140;5.428;2023-04-09T02:47:12;102599.22;;;8.76;90.60
72116;BME280;59991;52.140;5.428;2023-04-09T02:47:43;102598.41;;;8.76;90.27
72116;BME280;59991;52.140;5.428;2023-04-09T02:48:15;102598.09;;;8.77;90.49
72116;BME280;59991;52.140;5.428;2023-04-09T02:48:46;102603.53;;;8.77;90.48
72116;BME280;59991;52.140;5.428;2023-04-09T02:49:17;102598.91;;;8.78;90.41
72116;BME280;59991;52.140;5.428;2023-04-09T02:49:49;102595.06;;;8.79;90.61
72116;BME280;59991;52.140;5.428;2023-04-09T02:50:20;102596.97;;;8.78;90.22
72116;BME280;59991;52.140;5.428;2023-04-09T02:50:52;102593.13;;;8.79;90.48
72116;BME280;59991;52.140;5.428;2023-04-09T02:51:23;102593.13;;;8.79;90.55
72116;BME280;59991;52.140;5.428;2023-04-09T02:51:55;102607.84;;;8.78;90.45
72116;BME280;59991;52.140;5.428;2023-04-09T02:52:26;102596.16;;;8.78;91.13
72116;BME280;59991;52.140;5.428;2023-04-09T02:52:57;102592.66;;;8.77;90.93
72116;BME280;59991;52.140;5.428;2023-04-09T02:53:29;102594.56;;;8.77;90.63
72116;BME280;59991;52.140;5.428;2023-04-09T02:54:00;102582.09;;;8.76;90.67
72116;BME280;59991;52.140;5.428;2023-04-09T02:54:32;102594.56;;;8.77;91.00
72116;BME280;59991;52.140;5.428;2023-04-09T02:55:03;102595.38;;;8.77;91.41
72116;BME280;59991;52.140;5.428;2023-04-09T02:55:35;102589.94;;;8.77;90.99
72116;BME280;59991;52.140;5.428;2023-04-09T02:56:06;102599.22;;;8.76;90.35
72116;BME280;59991;52.140;5.428;2023-04-09T02:56:38;102587.06;;;8.74;90.79
72116;BME280;59991;52.140;5.428;2023-04-09T02:57:09;102593.28;;;8.74;91.51
72116;BME280;59991;52.140;5.428;2023-04-09T02:57:40;102595.22;;;8.74;90.97
72116;BME280;59991;52.140;5.428;2023-04-09T02:58:12;102590.09;;;8.72;91.12
72116;BME280;59991;52.140;5.428;2023-04-09T02:58:43;102588.97;;;8.73;90.95
72116;BME280;59991;52.140;5.428;2023-04-09T02:59:15;102594.41;;;8.73;90.97
72116;BME280;59991;52.140;5.428;2023-04-09T02:59:46;102597.44;;;8.72;91.37
72116;BME280;59991;52.140;5.428;2023-04-09T03:00:18;102592.81;;;8.72;91.03
72116;BME280;59991;52.140;5.428;2023-04-09T03:00:49;102587.38;;;8.72;91.08
72116;BME280;59991;52.140;5.428;2023-04-09T03:01:21;102591.69;;;8.73;91.14
72116;BME280;59991;52.140;5.428;2023-04-09T03:01:52;102587.38;;;8.72;90.86
72116;BME280;59991;52.140;5.428;2023-04-09T03:02:24;102593.28;;;8.74;91.31
72116;BME280;59991;52.140;5.428;2023-04-09T03:02:55;102592.50;;;8.74;91.24
72116;BME280;59991;52.140;5.428;2023-04-09T03:03:28;102582.41;;;8.74;91.91
72116;BME280;59991;52.140;5.428;2023-04-09T03:04:01;102588.16;;;8.73;91.47
72116;BME280;59991;52.140;5.428;2023-04-09T03:04:33;102588.97;;;8.73;91.09